sensor_id;sensor_type;location;lat;lon;timestamp;temperature;humidity
44047;DHT22;29713;-33.888;151.150;2022-11-20T00:01:20;27.00;81.40
44047;DHT22;29713;-33.888;151.150;2022-11-20T00:03:48;27.00;80.70
44047;DHT22;29713;-33.888;151.150;2022-11-20T00:06:16;27.00;80.10
44047;DHT22;29713;-33.888;151.150;2022-11-20T00:08:44;27.00;80.20
44047;DHT22;29713;-33.888;151.150;2022-11-20T00:11:15;26.90;79.30
44047;DHT22;29713;-33.888;151.150;2022-11-20T00:13:44;26.90;79.50
44047;DHT22;29713;-33.888;151.150;2022-11-20T00:16:15;26.90;79.80
44047;DHT22;29713;-33.888;151.150;2022-11-20T00:18:43;27.00;79.90
44047;DHT22;29713;-33.888;151.150;2022-11-20T00:21:17;27.20;81.50
44047;DHT22;29713;-33.888;151.150;2022-11-20T00:23:45;27.20;80.90
44047;DHT22;29713;-33.888;151.150;2022-11-20T00:26:14;27.40;79.30
44047;DHT22;29713;-33.888;151.150;2022-11-20T00:28:43;27.20;79.00
44047;DHT22;29713;-33.888;151.150;2022-11-20T00:31:15;27.40;79.10
44047;DHT22;29713;-33.888;151.150;2022-11-20T00:33:44;27.40;78.50
44047;DHT22;29713;-33.888;151.150;2022-11-20T00:36:16;27.40;79.10
44047;DHT22;29713;-33.888;151.150;2022-11-20T00:38:44;27.50;79.40
44047;DHT22;29713;-33.888;151.150;2022-11-20T00:41:14;27.50;76.20
44047;DHT22;29713;-33.888;151.150;2022-11-20T00:43:42;27.60;75.60
44047;DHT22;29713;-33.888;151.150;2022-11-20T00:46:12;27.60;75.70
44047;DHT22;29713;-33.888;151.150;2022-11-20T00:48:40;27.60;74.70
44047;DHT22;29713;-33.888;151.150;2022-11-20T00:51:08;27.60;74.60
44047;DHT22;29713;-33.888;151.150;2022-11-20T00:53:35;27.60;73.00
44047;DHT22;29713;-33.888;151.150;2022-11-20T00:56:06;27.60;73.50
44047;DHT22;29713;-33.888;151.150;2022-11-20T00:58:35;27.70;73.50
44047;DHT22;29713;-33.888;151.150;2022-11-20T01:01:09;27.90;75.10
44047;DHT22;29713;-33.888;151.150;2022-11-20T01:03:39;28.10;74.10
44047;DHT22;29713;-33.888;151.150;2022-11-20T01:06:21;28.10;73.40
44047;DHT22;29713;-33.888;151.150;2022-11-20T01:08:50;28.00;72.20
44047;DHT22;29713;-33.888;151.150;2022-11-20T01:11:21;27.80;70.60
44047;DHT22;29713;-33.888;151.150;2022-11-20T01:13:50;27.70;71.50
44047;DHT22;29713;-33.888;151.150;2022-11-20T01:16:24;27.80;72.90
44047;DHT22;29713;-33.888;151.150;2022-11-20T01:18:53;28.00;71.60
44047;DHT22;29713;-33.888;151.150;2022-11-20T01:21:23;28.00;71.50
44047;DHT22;29713;-33.888;151.150;2022-11-20T01:23:51;28.10;72.40
44047;DHT22;29713;-33.888;151.150;2022-11-20T01:26:20;28.40;72.50
44047;DHT22;29713;-33.888;151.150;2022-11-20T01:28:49;28.40;71.60
44047;DHT22;29713;-33.888;151.150;2022-11-20T01:33:53;28.70;71.70
44047;DHT22;29713;-33.888;151.150;2022-11-20T01:36:22;28.90;70.40
44047;DHT22;29713;-33.888;151.150;2022-11-20T01:38:54;29.20;69.80
44047;DHT22;29713;-33.888;151.150;2022-11-20T01:41:23;29.30;70.30
44047;DHT22;29713;-33.888;151.150;2022-11-20T01:44:10;29.50;71.10
44047;DHT22;29713;-33.888;151.150;2022-11-20T01:47:03;29.60;71.20
44047;DHT22;29713;-33.888;151.150;2022-11-20T01:49:50;29.90;71.90
44047;DHT22;29713;-33.888;151.150;2022-11-20T01:52:30;30.10;68.50
44047;DHT22;29713;-33.888;151.150;2022-11-20T01:55:05;29.80;68.10
44047;DHT22;29713;-33.888;151.150;2022-11-20T01:57:34;29.60;65.40
44047;DHT22;29713;-33.888;151.150;2022-11-20T02:00:13;29.50;66.50
44047;DHT22;29713;-33.888;151.150;2022-11-20T02:02:47;29.50;66.00
44047;DHT22;29713;-33.888;151.150;2022-11-20T02:05:36;29.70;66.90
44047;DHT22;29713;-33.888;151.150;2022-11-20T02:08:06;29.60;65.60
44047;DHT22;29713;-33.888;151.150;2022-11-20T02:10:34;29.70;64.90
44047;DHT22;29713;-33.888;151.150;2022-11-20T02:13:02;29.60;66.20
44047;DHT22;29713;-33.888;151.150;2022-11-20T02:15:48;30.00;65.50
44047;DHT22;29713;-33.888;151.150;2022-11-20T02:18:17;30.40;65.80
44047;DHT22;29713;-33.888;151.150;2022-11-20T02:20:48;30.40;65.40
44047;DHT22;29713;-33.888;151.150;2022-11-20T02:23:38;30.60;63.90
44047;DHT22;29713;-33.888;151.150;2022-11-20T02:26:09;30.50;63.80
44047;DHT22;29713;-33.888;151.150;2022-11-20T02:28:37;30.90;66.10
44047;DHT22;29713;-33.888;151.150;2022-11-20T02:31:05;31.10;64.30
44047;DHT22;29713;-33.888;151.150;2022-11-20T02:33:32;30.50;64.30
44047;DHT22;29713;-33.888;151.150;2022-11-20T02:35:59;29.90;62.40
44047;DHT22;29713;-33.888;151.150;2022-11-20T02:38:27;29.00;63.60
44047;DHT22;29713;-33.888;151.150;2022-11-20T02:40:58;28.50;64.60
44047;DHT22;29713;-33.888;151.150;2022-11-20T02:43:25;28.60;66.80
44047;DHT22;29713;-33.888;151.150;2022-11-20T02:45:52;28.90;65.30
44047;DHT22;29713;-33.888;151.150;2022-11-20T02:48:19;29.30;64.50
44047;DHT22;29713;-33.888;151.150;2022-11-20T02:50:47;29.30;65.80
44047;DHT22;29713;-33.888;151.150;2022-11-20T02:53:14;29.80;64.70
44047;DHT22;29713;-33.888;151.150;2022-11-20T02:55:41;29.90;65.90
44047;DHT22;29713;-33.888;151.150;2022-11-20T02:58:09;29.90;66.00
44047;DHT22;29713;-33.888;151.150;2022-11-20T03:00:37;30.10;65.50
44047;DHT22;29713;-33.888;151.150;2022-11-20T03:03:04;30.10;67.00
44047;DHT22;29713;-33.888;151.150;2022-11-20T03:05:32;30.00;66.90
44047;DHT22;29713;-33.888;151.150;2022-11-20T03:07:59;30.30;68.00
44047;DHT22;29713;-33.888;151.150;2022-11-20T03:10:26;30.20;66.30
44047;DHT22;29713;-33.888;151.150;2022-11-20T03:12:57;30.60;67.60
44047;DHT22;29713;-33.888;151.150;2022-11-20T03:15:24;31.00;66.30
44047;DHT22;29713;-33.888;151.150;2022-11-20T03:17:55;31.20;65.80
44047;DHT22;29713;-33.888;151.150;2022-11-20T03:20:23;31.20;65.70
44047;DHT22;29713;-33.888;151.150;2022-11-20T03:22:51;31.50;66.00
44047;DHT22;29713;-33.888;151.150;2022-11-20T03:25:20;31.40;64.60
44047;DHT22;29713;-33.888;151.150;2022-11-20T03:27:47;31.60;64.80
44047;DHT22;29713;-33.888;151.150;2022-11-20T03:30:15;31.60;64.90
44047;DHT22;29713;-33.888;151.150;2022-11-20T03:32:42;31.60;64.80
44047;DHT22;29713;-33.888;151.150;2022-11-20T03:35:10;31.30;64.90
44047;DHT22;29713;-33.888;151.150;2022-11-20T03:37:37;30.70;65.30
44047;DHT22;29713;-33.888;151.150;2022-11-20T03:40:05;30.30;66.20
44047;DHT22;29713;-33.888;151.150;2022-11-20T03:42:32;29.60;64.30
44047;DHT22;29713;-33.888;151.150;2022-11-20T03:45:16;29.00;64.60
44047;DHT22;29713;-33.888;151.150;2022-11-20T03:47:45;28.40;64.40
44047;DHT22;29713;-33.888;151.150;2022-11-20T03:50:13;28.30;63.80
44047;DHT22;29713;-33.888;151.150;2022-11-20T03:52:40;28.50;64.60
44047;DHT22;29713;-33.888;151.150;2022-11-20T03:55:09;29.10;63.60
44047;DHT22;29713;-33.888;151.150;2022-11-20T03:57:36;29.50;63.00
44047;DHT22;29713;-33.888;151.150;2022-11-20T04:00:05;29.80;62.30
44047;DHT22;29713;-33.888;151.150;2022-11-20T04:02:32;30.40;63.70
44047;DHT22;29713;-33.888;151.150;2022-11-20T04:04:59;30.40;61.20
44047;DHT22;29713;-33.888;151.150;2022-11-20T04:07:27;30.60;62.90
44047;DHT22;29713;-33.888;151.150;2022-11-20T04:09:54;30.70;64.30
44047;DHT22;29713;-33.888;151.150;2022-11-20T04:12:21;30.20;64.20
44047;DHT22;29713;-33.888;151.150;2022-11-20T04:14:49;30.10;64.80
44047;DHT22;29713;-33.888;151.150;2022-11-20T04:17:16;30.20;63.00
44047;DHT22;29713;-33.888;151.150;2022-11-20T04:19:43;30.30;62.80
44047;DHT22;29713;-33.888;151.150;2022-11-20T04:22:10;30.10;62.60
44047;DHT22;29713;-33.888;151.150;2022-11-20T04:24:38;29.70;63.00
44047;DHT22;29713;-33.888;151.150;2022-11-20T04:27:05;29.80;62.10
44047;DHT22;29713;-33.888;151.150;2022-11-20T04:29:33;30.00;63.30
44047;DHT22;29713;-33.888;151.150;2022-11-20T04:32:00;30.30;63.90
44047;DHT22;29713;-33.888;151.150;2022-11-20T04:34:27;30.80;63.50
44047;DHT22;29713;-33.888;151.150;2022-11-20T04:36:55;31.30;62.20
44047;DHT22;29713;-33.888;151.150;2022-11-20T04:39:22;31.40;59.20
44047;DHT22;29713;-33.888;151.150;2022-11-20T04:41:49;31.10;58.60
44047;DHT22;29713;-33.888;151.150;2022-11-20T04:44:36;30.90;58.50
44047;DHT22;29713;-33.888;151.150;2022-11-20T04:47:04;30.90;59.50
44047;DHT22;29713;-33.888;151.150;2022-11-20T04:49:31;30.80;59.40
44047;DHT22;29713;-33.888;151.150;2022-11-20T04:52:00;30.70;59.10
44047;DHT22;29713;-33.888;151.150;2022-11-20T04:54:27;30.50;57.20
44047;DHT22;29713;-33.888;151.150;2022-11-20T04:56:55;30.10;54.40
44047;DHT22;29713;-33.888;151.150;2022-11-20T04:59:22;30.30;55.90
44047;DHT22;29713;-33.888;151.150;2022-11-20T05:01:49;30.60;56.90
44047;DHT22;29713;-33.888;151.150;2022-11-20T05:04:17;30.80;57.10
44047;DHT22;29713;-33.888;151.150;2022-11-20T05:06:44;30.90;56.80
44047;DHT22;29713;-33.888;151.150;2022-11-20T05:09:12;30.70;57.40
44047;DHT22;29713;-33.888;151.150;2022-11-20T05:11:40;30.70;57.10
44047;DHT22;29713;-33.888;151.150;2022-11-20T05:14:07;30.90;57.90
44047;DHT22;29713;-33.888;151.150;2022-11-20T05:16:35;30.80;55.50
44047;DHT22;29713;-33.888;151.150;2022-11-20T05:19:02;30.70;55.20
44047;DHT22;29713;-33.888;151.150;2022-11-20T05:21:31;30.80;54.20
44047;DHT22;29713;-33.888;151.150;2022-11-20T05:24:01;30.30;53.90
44047;DHT22;29713;-33.888;151.150;2022-11-20T05:26:28;30.10;54.20
44047;DHT22;29713;-33.888;151.150;2022-11-20T05:28:55;30.10;55.40
44047;DHT22;29713;-33.888;151.150;2022-11-20T05:31:24;30.40;54.40
44047;DHT22;29713;-33.888;151.150;2022-11-20T05:33:51;30.20;51.80
44047;DHT22;29713;-33.888;151.150;2022-11-20T05:36:19;30.30;53.70
44047;DHT22;29713;-33.888;151.150;2022-11-20T05:38:46;30.40;52.60
44047;DHT22;29713;-33.888;151.150;2022-11-20T05:41:16;30.30;52.30
44047;DHT22;29713;-33.888;151.150;2022-11-20T05:43:45;30.10;53.10
44047;DHT22;29713;-33.888;151.150;2022-11-20T05:46:16;30.10;53.10
44047;DHT22;29713;-33.888;151.150;2022-11-20T05:48:46;30.00;52.50
44047;DHT22;29713;-33.888;151.150;2022-11-20T05:51:16;29.90;52.90
44047;DHT22;29713;-33.888;151.150;2022-11-20T05:53:44;30.10;52.90
44047;DHT22;29713;-33.888;151.150;2022-11-20T05:56:14;30.20;53.40
44047;DHT22;29713;-33.888;151.150;2022-11-20T05:58:43;30.10;51.70
44047;DHT22;29713;-33.888;151.150;2022-11-20T06:01:17;30.10;51.30
44047;DHT22;29713;-33.888;151.150;2022-11-20T06:03:45;30.20;51.00
44047;DHT22;29713;-33.888;151.150;2022-11-20T06:06:14;30.20;51.90
44047;DHT22;29713;-33.888;151.150;2022-11-20T06:08:42;30.10;51.30
44047;DHT22;29713;-33.888;151.150;2022-11-20T06:11:11;30.00;52.80
44047;DHT22;29713;-33.888;151.150;2022-11-20T06:13:39;30.00;51.50
44047;DHT22;29713;-33.888;151.150;2022-11-20T06:16:07;29.90;52.00
44047;DHT22;29713;-33.888;151.150;2022-11-20T06:18:35;29.70;50.80
44047;DHT22;29713;-33.888;151.150;2022-11-20T06:21:04;29.30;50.40
44047;DHT22;29713;-33.888;151.150;2022-11-20T06:23:32;29.20;51.10
44047;DHT22;29713;-33.888;151.150;2022-11-20T06:26:12;29.30;52.60
44047;DHT22;29713;-33.888;151.150;2022-11-20T06:28:40;29.10;51.10
44047;DHT22;29713;-33.888;151.150;2022-11-20T06:31:09;28.90;50.70
44047;DHT22;29713;-33.888;151.150;2022-11-20T06:33:37;28.70;51.20
44047;DHT22;29713;-33.888;151.150;2022-11-20T06:36:05;28.20;51.30
44047;DHT22;29713;-33.888;151.150;2022-11-20T06:38:32;28.00;52.60
44047;DHT22;29713;-33.888;151.150;2022-11-20T06:40:59;27.90;52.50
44047;DHT22;29713;-33.888;151.150;2022-11-20T06:43:29;27.70;53.20
44047;DHT22;29713;-33.888;151.150;2022-11-20T06:45:58;27.50;51.40
44047;DHT22;29713;-33.888;151.150;2022-11-20T06:48:29;27.20;52.60
44047;DHT22;29713;-33.888;151.150;2022-11-20T06:50:57;27.10;51.70
44047;DHT22;29713;-33.888;151.150;2022-11-20T06:53:25;26.90;51.70
44047;DHT22;29713;-33.888;151.150;2022-11-20T06:55:52;26.70;52.30
44047;DHT22;29713;-33.888;151.150;2022-11-20T06:58:22;26.70;53.40
44047;DHT22;29713;-33.888;151.150;2022-11-20T07:00:49;26.70;53.60
44047;DHT22;29713;-33.888;151.150;2022-11-20T07:03:17;26.70;53.70
44047;DHT22;29713;-33.888;151.150;2022-11-20T07:05:44;26.60;54.40
44047;DHT22;29713;-33.888;151.150;2022-11-20T07:08:12;26.50;54.60
44047;DHT22;29713;-33.888;151.150;2022-11-20T07:10:40;26.30;54.00
44047;DHT22;29713;-33.888;151.150;2022-11-20T07:13:07;26.20;53.80
44047;DHT22;29713;-33.888;151.150;2022-11-20T07:15:34;26.20;53.90
44047;DHT22;29713;-33.888;151.150;2022-11-20T07:18:02;26.20;54.00
44047;DHT22;29713;-33.888;151.150;2022-11-20T07:20:29;26.10;52.50
44047;DHT22;29713;-33.888;151.150;2022-11-20T07:22:58;26.00;52.80
44047;DHT22;29713;-33.888;151.150;2022-11-20T07:25:26;25.90;53.50
44047;DHT22;29713;-33.888;151.150;2022-11-20T07:27:58;25.80;54.50
44047;DHT22;29713;-33.888;151.150;2022-11-20T07:30:27;25.80;53.60
44047;DHT22;29713;-33.888;151.150;2022-11-20T07:32:56;25.70;54.20
44047;DHT22;29713;-33.888;151.150;2022-11-20T07:35:24;25.60;55.10
44047;DHT22;29713;-33.888;151.150;2022-11-20T07:37:52;25.50;55.70
44047;DHT22;29713;-33.888;151.150;2022-11-20T07:40:20;25.40;55.20
44047;DHT22;29713;-33.888;151.150;2022-11-20T07:42:52;25.30;56.30
44047;DHT22;29713;-33.888;151.150;2022-11-20T07:45:21;25.20;55.10
44047;DHT22;29713;-33.888;151.150;2022-11-20T07:47:48;25.10;55.60
44047;DHT22;29713;-33.888;151.150;2022-11-20T07:50:16;25.00;55.90
44047;DHT22;29713;-33.888;151.150;2022-11-20T07:52:44;25.00;55.80
44047;DHT22;29713;-33.888;151.150;2022-11-20T07:55:12;25.00;55.60
44047;DHT22;29713;-33.888;151.150;2022-11-20T07:57:39;24.90;56.40
44047;DHT22;29713;-33.888;151.150;2022-11-20T08:00:09;24.80;56.10
44047;DHT22;29713;-33.888;151.150;2022-11-20T08:02:40;24.70;57.00
44047;DHT22;29713;-33.888;151.150;2022-11-20T08:05:11;24.70;57.30
44047;DHT22;29713;-33.888;151.150;2022-11-20T08:07:39;24.70;57.80
44047;DHT22;29713;-33.888;151.150;2022-11-20T08:10:09;24.70;58.20
44047;DHT22;29713;-33.888;151.150;2022-11-20T08:12:42;24.70;58.20
44047;DHT22;29713;-33.888;151.150;2022-11-20T08:15:28;24.50;58.70
44047;DHT22;29713;-33.888;151.150;2022-11-20T08:18:11;24.50;58.50
44047;DHT22;29713;-33.888;151.150;2022-11-20T08:20:39;24.40;59.30
44047;DHT22;29713;-33.888;151.150;2022-11-20T08:23:07;24.30;59.10
44047;DHT22;29713;-33.888;151.150;2022-11-20T08:25:37;24.30;59.80
44047;DHT22;29713;-33.888;151.150;2022-11-20T08:28:08;24.30;59.30
44047;DHT22;29713;-33.888;151.150;2022-11-20T08:30:36;24.30;60.00
44047;DHT22;29713;-33.888;151.150;2022-11-20T08:33:06;24.20;60.30
44047;DHT22;29713;-33.888;151.150;2022-11-20T08:35:35;24.20;60.30
44047;DHT22;29713;-33.888;151.150;2022-11-20T08:38:05;24.10;60.00
44047;DHT22;29713;-33.888;151.150;2022-11-20T08:40:33;24.00;60.00
44047;DHT22;29713;-33.888;151.150;2022-11-20T08:43:00;23.90;60.40
44047;DHT22;29713;-33.888;151.150;2022-11-20T08:45:27;23.90;61.00
44047;DHT22;29713;-33.888;151.150;2022-11-20T08:48:00;23.90;61.10
44047;DHT22;29713;-33.888;151.150;2022-11-20T08:50:28;23.80;60.60
44047;DHT22;29713;-33.888;151.150;2022-11-20T08:53:05;23.70;60.00
44047;DHT22;29713;-33.888;151.150;2022-11-20T08:55:32;23.60;59.50
44047;DHT22;29713;-33.888;151.150;2022-11-20T08:58:05;23.50;60.30
44047;DHT22;29713;-33.888;151.150;2022-11-20T09:00:33;23.50;60.40
44047;DHT22;29713;-33.888;151.150;2022-11-20T09:03:01;23.50;60.00
44047;DHT22;29713;-33.888;151.150;2022-11-20T09:05:29;23.40;60.10
44047;DHT22;29713;-33.888;151.150;2022-11-20T09:07:59;23.40;59.60
44047;DHT22;29713;-33.888;151.150;2022-11-20T09:10:27;23.40;59.60
44047;DHT22;29713;-33.888;151.150;2022-11-20T09:12:55;23.30;59.20
44047;DHT22;29713;-33.888;151.150;2022-11-20T09:15:23;23.30;59.00
44047;DHT22;29713;-33.888;151.150;2022-11-20T09:17:52;23.20;59.00
44047;DHT22;29713;-33.888;151.150;2022-11-20T09:20:20;23.30;60.00
44047;DHT22;29713;-33.888;151.150;2022-11-20T09:22:48;23.20;59.00
44047;DHT22;29713;-33.888;151.150;2022-11-20T09:25:15;23.20;58.80
44047;DHT22;29713;-33.888;151.150;2022-11-20T09:27:43;23.20;59.40
44047;DHT22;29713;-33.888;151.150;2022-11-20T09:30:13;23.10;58.90
44047;DHT22;29713;-33.888;151.150;2022-11-20T09:32:41;23.00;59.40
44047;DHT22;29713;-33.888;151.150;2022-11-20T09:35:10;23.00;59.30
44047;DHT22;29713;-33.888;151.150;2022-11-20T09:37:37;22.90;59.50
44047;DHT22;29713;-33.888;151.150;2022-11-20T09:40:05;22.90;59.00
44047;DHT22;29713;-33.888;151.150;2022-11-20T09:42:41;22.80;59.30
44047;DHT22;29713;-33.888;151.150;2022-11-20T09:50:51;22.70;60.10
44047;DHT22;29713;-33.888;151.150;2022-11-20T09:53:39;22.70;60.30
44047;DHT22;29713;-33.888;151.150;2022-11-20T09:56:11;22.70;60.40
44047;DHT22;29713;-33.888;151.150;2022-11-20T09:58:42;22.60;60.60
44047;DHT22;29713;-33.888;151.150;2022-11-20T10:01:18;22.60;60.00
44047;DHT22;29713;-33.888;151.150;2022-11-20T10:06:34;22.50;60.40
44047;DHT22;29713;-33.888;151.150;2022-11-20T10:12:10;22.40;60.00
44047;DHT22;29713;-33.888;151.150;2022-11-20T10:21:00;22.30;60.40
44047;DHT22;29713;-33.888;151.150;2022-11-20T10:26:47;22.30;60.60
44047;DHT22;29713;-33.888;151.150;2022-11-20T10:29:18;22.30;61.60
44047;DHT22;29713;-33.888;151.150;2022-11-20T10:31:52;22.30;62.00
44047;DHT22;29713;-33.888;151.150;2022-11-20T10:34:28;22.30;61.10
44047;DHT22;29713;-33.888;151.150;2022-11-20T10:37:08;22.20;61.20
44047;DHT22;29713;-33.888;151.150;2022-11-20T10:42:17;22.20;61.30
44047;DHT22;29713;-33.888;151.150;2022-11-20T10:44:55;22.20;61.60
44047;DHT22;29713;-33.888;151.150;2022-11-20T10:47:30;22.20;62.50
44047;DHT22;29713;-33.888;151.150;2022-11-20T10:50:02;22.20;62.50
44047;DHT22;29713;-33.888;151.150;2022-11-20T11:00:16;22.20;63.50
44047;DHT22;29713;-33.888;151.150;2022-11-20T11:02:54;22.20;64.00
44047;DHT22;29713;-33.888;151.150;2022-11-20T11:08:04;22.10;64.80
44047;DHT22;29713;-33.888;151.150;2022-11-20T11:11:00;22.00;64.90
44047;DHT22;29713;-33.888;151.150;2022-11-20T11:13:31;22.00;65.50
44047;DHT22;29713;-33.888;151.150;2022-11-20T11:15:59;21.90;64.70
44047;DHT22;29713;-33.888;151.150;2022-11-20T11:18:28;21.90;65.20
44047;DHT22;29713;-33.888;151.150;2022-11-20T11:20:57;21.80;65.30
44047;DHT22;29713;-33.888;151.150;2022-11-20T11:23:41;21.80;66.10
44047;DHT22;29713;-33.888;151.150;2022-11-20T11:26:23;21.80;66.30
44047;DHT22;29713;-33.888;151.150;2022-11-20T11:29:03;21.70;66.40
44047;DHT22;29713;-33.888;151.150;2022-11-20T11:31:32;21.70;66.80
44047;DHT22;29713;-33.888;151.150;2022-11-20T11:34:16;21.60;66.90
44047;DHT22;29713;-33.888;151.150;2022-11-20T11:36:56;21.60;67.30
44047;DHT22;29713;-33.888;151.150;2022-11-20T11:39:24;21.70;68.00
44047;DHT22;29713;-33.888;151.150;2022-11-20T11:41:52;21.70;68.30
44047;DHT22;29713;-33.888;151.150;2022-11-20T11:47:35;21.60;68.30
44047;DHT22;29713;-33.888;151.150;2022-11-20T11:58:50;21.50;69.40
44047;DHT22;29713;-33.888;151.150;2022-11-20T12:07:11;21.40;69.70
44047;DHT22;29713;-33.888;151.150;2022-11-20T12:09:47;21.40;70.20
44047;DHT22;29713;-33.888;151.150;2022-11-20T12:12:30;21.30;69.90
44047;DHT22;29713;-33.888;151.150;2022-11-20T12:14:59;21.30;70.70
44047;DHT22;29713;-33.888;151.150;2022-11-20T12:17:27;21.30;70.80
44047;DHT22;29713;-33.888;151.150;2022-11-20T12:19:54;21.30;71.00
44047;DHT22;29713;-33.888;151.150;2022-11-20T12:25:36;21.10;71.30
44047;DHT22;29713;-33.888;151.150;2022-11-20T12:28:18;21.00;71.40
44047;DHT22;29713;-33.888;151.150;2022-11-20T12:38:57;20.90;73.20
44047;DHT22;29713;-33.888;151.150;2022-11-20T12:45:04;20.80;74.70
44047;DHT22;29713;-33.888;151.150;2022-11-20T12:58:44;20.60;75.70
44047;DHT22;29713;-33.888;151.150;2022-11-20T13:01:38;20.60;76.00
44047;DHT22;29713;-33.888;151.150;2022-11-20T13:06:55;20.60;78.10
44047;DHT22;29713;-33.888;151.150;2022-11-20T13:09:24;20.60;77.90
44047;DHT22;29713;-33.888;151.150;2022-11-20T13:12:39;20.60;77.90
44047;DHT22;29713;-33.888;151.150;2022-11-20T13:18:00;20.60;80.10
44047;DHT22;29713;-33.888;151.150;2022-11-20T13:20:29;20.50;80.90
44047;DHT22;29713;-33.888;151.150;2022-11-20T13:22:58;20.50;82.40
44047;DHT22;29713;-33.888;151.150;2022-11-20T13:25:30;20.50;83.50
44047;DHT22;29713;-33.888;151.150;2022-11-20T13:28:00;20.40;84.00
44047;DHT22;29713;-33.888;151.150;2022-11-20T13:30:29;20.40;82.70
44047;DHT22;29713;-33.888;151.150;2022-11-20T13:35:40;20.30;84.80
44047;DHT22;29713;-33.888;151.150;2022-11-20T13:38:10;20.30;85.40
44047;DHT22;29713;-33.888;151.150;2022-11-20T13:40:52;20.30;84.60
44047;DHT22;29713;-33.888;151.150;2022-11-20T13:46:07;20.30;83.90
44047;DHT22;29713;-33.888;151.150;2022-11-20T13:48:40;20.30;83.40
44047;DHT22;29713;-33.888;151.150;2022-11-20T13:51:36;20.40;83.80
44047;DHT22;29713;-33.888;151.150;2022-11-20T14:02:30;20.40;82.50
44047;DHT22;29713;-33.888;151.150;2022-11-20T14:04:59;20.30;81.70
44047;DHT22;29713;-33.888;151.150;2022-11-20T14:07:41;20.30;81.80
44047;DHT22;29713;-33.888;151.150;2022-11-20T14:10:28;20.30;81.70
44047;DHT22;29713;-33.888;151.150;2022-11-20T14:12:56;20.20;81.20
44047;DHT22;29713;-33.888;151.150;2022-11-20T14:15:34;20.20;80.30
44047;DHT22;29713;-33.888;151.150;2022-11-20T14:18:18;20.20;80.00
44047;DHT22;29713;-33.888;151.150;2022-11-20T14:20:47;20.20;80.10
44047;DHT22;29713;-33.888;151.150;2022-11-20T14:23:25;20.30;80.20
44047;DHT22;29713;-33.888;151.150;2022-11-20T14:25:52;20.30;80.70
44047;DHT22;29713;-33.888;151.150;2022-11-20T14:28:30;20.30;81.10
44047;DHT22;29713;-33.888;151.150;2022-11-20T14:30:58;20.30;81.20
44047;DHT22;29713;-33.888;151.150;2022-11-20T14:33:26;20.30;81.40
44047;DHT22;29713;-33.888;151.150;2022-11-20T14:35:58;20.30;81.10
44047;DHT22;29713;-33.888;151.150;2022-11-20T14:38:29;20.30;81.70
44047;DHT22;29713;-33.888;151.150;2022-11-20T14:41:26;20.20;81.90
44047;DHT22;29713;-33.888;151.150;2022-11-20T14:44:00;20.10;82.10
44047;DHT22;29713;-33.888;151.150;2022-11-20T14:46:31;20.10;82.90
44047;DHT22;29713;-33.888;151.150;2022-11-20T14:49:01;20.00;81.70
44047;DHT22;29713;-33.888;151.150;2022-11-20T14:51:33;20.00;80.80
44047;DHT22;29713;-33.888;151.150;2022-11-20T14:54:19;20.00;82.10
44047;DHT22;29713;-33.888;151.150;2022-11-20T14:56:57;20.00;82.20
44047;DHT22;29713;-33.888;151.150;2022-11-20T14:59:27;20.00;82.30
44047;DHT22;29713;-33.888;151.150;2022-11-20T15:02:10;20.00;82.90
44047;DHT22;29713;-33.888;151.150;2022-11-20T15:04:56;20.00;82.90
44047;DHT22;29713;-33.888;151.150;2022-11-20T15:07:31;19.90;83.20
44047;DHT22;29713;-33.888;151.150;2022-11-20T15:10:04;19.90;84.10
44047;DHT22;29713;-33.888;151.150;2022-11-20T15:12:33;19.80;84.30
44047;DHT22;29713;-33.888;151.150;2022-11-20T15:15:02;19.80;85.00
44047;DHT22;29713;-33.888;151.150;2022-11-20T15:17:32;19.70;85.50
44047;DHT22;29713;-33.888;151.150;2022-11-20T15:20:02;19.70;87.10
44047;DHT22;29713;-33.888;151.150;2022-11-20T15:22:30;19.70;87.80
44047;DHT22;29713;-33.888;151.150;2022-11-20T15:24:57;19.70;88.80
44047;DHT22;29713;-33.888;151.150;2022-11-20T15:27:25;19.70;88.80
44047;DHT22;29713;-33.888;151.150;2022-11-20T15:29:52;19.70;88.30
44047;DHT22;29713;-33.888;151.150;2022-11-20T15:32:20;19.80;88.10
44047;DHT22;29713;-33.888;151.150;2022-11-20T15:34:47;19.80;86.80
44047;DHT22;29713;-33.888;151.150;2022-11-20T15:37:14;19.80;86.90
44047;DHT22;29713;-33.888;151.150;2022-11-20T15:39:42;19.80;86.60
44047;DHT22;29713;-33.888;151.150;2022-11-20T15:42:09;19.80;86.00
44047;DHT22;29713;-33.888;151.150;2022-11-20T15:44:36;19.90;85.70
44047;DHT22;29713;-33.888;151.150;2022-11-20T15:47:04;19.90;85.30
44047;DHT22;29713;-33.888;151.150;2022-11-20T15:49:32;19.90;85.60
44047;DHT22;29713;-33.888;151.150;2022-11-20T15:51:59;19.90;86.20
44047;DHT22;29713;-33.888;151.150;2022-11-20T15:54:26;19.90;85.80
44047;DHT22;29713;-33.888;151.150;2022-11-20T15:56:53;19.90;86.10
44047;DHT22;29713;-33.888;151.150;2022-11-20T15:59:21;19.90;86.70
44047;DHT22;29713;-33.888;151.150;2022-11-20T16:01:48;19.90;86.70
44047;DHT22;29713;-33.888;151.150;2022-11-20T16:04:16;19.90;86.50
44047;DHT22;29713;-33.888;151.150;2022-11-20T16:06:45;19.90;86.30
44047;DHT22;29713;-33.888;151.150;2022-11-20T16:09:12;19.90;86.60
44047;DHT22;29713;-33.888;151.150;2022-11-20T16:11:39;19.90;85.80
44047;DHT22;29713;-33.888;151.150;2022-11-20T16:14:08;19.90;85.90
44047;DHT22;29713;-33.888;151.150;2022-11-20T16:16:55;19.90;85.70
44047;DHT22;29713;-33.888;151.150;2022-11-20T16:19:22;19.90;85.30
44047;DHT22;29713;-33.888;151.150;2022-11-20T16:21:49;19.90;85.00
44047;DHT22;29713;-33.888;151.150;2022-11-20T16:24:17;19.90;85.40
44047;DHT22;29713;-33.888;151.150;2022-11-20T16:26:45;19.90;85.60
44047;DHT22;29713;-33.888;151.150;2022-11-20T16:29:14;19.90;84.80
44047;DHT22;29713;-33.888;151.150;2022-11-20T16:31:41;19.90;85.60
44047;DHT22;29713;-33.888;151.150;2022-11-20T16:34:08;19.90;85.00
44047;DHT22;29713;-33.888;151.150;2022-11-20T16:36:36;19.80;85.10
44047;DHT22;29713;-33.888;151.150;2022-11-20T16:39:06;19.80;85.20
44047;DHT22;29713;-33.888;151.150;2022-11-20T16:41:34;19.70;85.10
44047;DHT22;29713;-33.888;151.150;2022-11-20T16:44:07;19.70;85.20
44047;DHT22;29713;-33.888;151.150;2022-11-20T16:46:35;19.70;86.20
44047;DHT22;29713;-33.888;151.150;2022-11-20T16:49:10;19.70;86.40